Albion, Ohio
Current Conditions -  °F | °C
As of 3:56 PM on Saturday 20 Dec 2014 (Local Time) from KBJJ Reporting Station
Overcast Overcast  
Wind Chill: 29°   Ceiling: 2200
Heat Index: 29°   Visibility: 9mi
Dew Point: 20°   Wind: 0mph
Humidity: 69%   Direction: NA
Pressure: 30.25"   Gusts: NA
Location:  40.9441°N, 82.1006°W
Report Text: KBJJ 202056Z AUTO 00000KT 9SM OVC022 M02/M07 A3025 RMK AO2 SLP256 T10171067 55003 TSNO
Loading
Personal Weather Stations






























Interactive Weather Map New forecast layout! Learn more

10-Day Weather Forecast

Advertisements
Track Severe Weather on mobile